EZY29VU EGGW-LEPA
Flight info
| Callsign | EZY29VU |
|---|---|
| Flight time | 2h 14m |
| Altitude | 35000 |
| Route | RODNI N27 ICTAM Q63 CPT N859 VAPID UN859 SOPIL DCT BALAN DCT EVPOK DCT NARAK DCT GAI DCT LOMRA DCT ROCAN DCT IBRAP DCT LUKEV DCT LORES |
| Aircraft | A320/M-SDE2E3FGHIJ1RWXYZ/LB1 |
Departure
| Time | 2026-05-06 11:24 |
|---|---|
| Airport | London Luton Airport (EGGW) |
Arrival
| Time | 2026-05-06 13:38 |
|---|---|
| Airport | Palma de Mallorca Airport (LEPA) |
| Time | Latitude | Longitude | Altitude | Speed | Heading |
|---|---|---|---|---|---|
| 2026-05-06 10:57 | 51.88019 | -0.37826 | 524 ft | 0 kts | 128° |
| 2026-05-06 11:15 | 51.88026 | -0.37841 | 523 ft | 4 kts | 129° |
| 2026-05-06 11:15 | 51.88039 | -0.37866 | 523 ft | 4 kts | 146° |
| 2026-05-06 11:16 | 51.88061 | -0.37874 | 523 ft | 4 kts | 206° |
| 2026-05-06 11:16 | 51.88077 | -0.37857 | 523 ft | 0 kts | 219° |
| 2026-05-06 11:19 | 51.88066 | -0.37872 | 523 ft | 4 kts | 219° |
| 2026-05-06 11:19 | 51.88041 | -0.37904 | 523 ft | 4 kts | 219° |
| 2026-05-06 11:19 | 51.88019 | -0.37934 | 523 ft | 6 kts | 219° |
| 2026-05-06 11:19 | 51.87976 | -0.37985 | 523 ft | 10 kts | 212° |
| 2026-05-06 11:20 | 51.87916 | -0.38015 | 523 ft | 8 kts | 185° |
| 2026-05-06 11:20 | 51.87866 | -0.38004 | 523 ft | 7 kts | 161° |
| 2026-05-06 11:20 | 51.87829 | -0.37968 | 523 ft | 8 kts | 141° |
| 2026-05-06 11:20 | 51.87789 | -0.37879 | 523 ft | 10 kts | 116° |
| 2026-05-06 11:21 | 51.87761 | -0.37783 | 523 ft | 9 kts | 115° |
| 2026-05-06 11:21 | 51.87735 | -0.37695 | 521 ft | 10 kts | 116° |
| 2026-05-06 11:21 | 51.87698 | -0.37565 | 520 ft | 14 kts | 116° |
| 2026-05-06 11:21 | 51.87645 | -0.37474 | 522 ft | 10 kts | 151° |
| 2026-05-06 11:22 | 51.87559 | -0.37460 | 522 ft | 17 kts | 193° |
| 2026-05-06 11:22 | 51.87493 | -0.37584 | 522 ft | 14 kts | 254° |
| 2026-05-06 11:22 | 51.87472 | -0.37721 | 523 ft | 14 kts | 255° |
| 2026-05-06 11:22 | 51.87442 | -0.37899 | 523 ft | 17 kts | 254° |
| 2026-05-06 11:23 | 51.87392 | -0.38045 | 523 ft | 14 kts | 214° |
| 2026-05-06 11:23 | 51.87298 | -0.38114 | 522 ft | 16 kts | 189° |
| 2026-05-06 11:23 | 51.87259 | -0.38028 | 524 ft | 12 kts | 82° |
| 2026-05-06 11:23 | 51.87320 | -0.37693 | 521 ft | 65 kts | 74° |
| 2026-05-06 11:24 | 51.87506 | -0.36600 | 526 ft | 133 kts | 74° |
| 2026-05-06 11:24 | 51.87795 | -0.34926 | 815 ft | 161 kts | 72° |
| 2026-05-06 11:24 | 51.88108 | -0.33186 | 1651 ft | 162 kts | 71° |
| 2026-05-06 11:24 | 51.88435 | -0.31363 | 2250 ft | 179 kts | 71° |
| 2026-05-06 11:25 | 51.88805 | -0.29307 | 2746 ft | 202 kts | 71° |
| 2026-05-06 11:25 | 51.89185 | -0.27011 | 3268 ft | 223 kts | 79° |
| 2026-05-06 11:25 | 51.88926 | -0.24451 | 3929 ft | 248 kts | 114° |
| 2026-05-06 11:25 | 51.87641 | -0.22221 | 4083 ft | 297 kts | 147° |
| 2026-05-06 11:26 | 51.85635 | -0.21273 | 4017 ft | 299 kts | 180° |
| 2026-05-06 11:26 | 51.83743 | -0.22111 | 4001 ft | 280 kts | 214° |
| 2026-05-06 11:26 | 51.82497 | -0.24435 | 4001 ft | 270 kts | 251° |
| 2026-05-06 11:26 | 51.82171 | -0.27382 | 4014 ft | 266 kts | 271° |
| 2026-05-06 11:27 | 51.82121 | -0.30372 | 3995 ft | 266 kts | 271° |
| 2026-05-06 11:27 | 51.82073 | -0.33371 | 4026 ft | 269 kts | 271° |
| 2026-05-06 11:27 | 51.82027 | -0.36395 | 4813 ft | 269 kts | 271° |
| 2026-05-06 11:27 | 51.81978 | -0.39419 | 5699 ft | 270 kts | 270° |
| 2026-05-06 11:28 | 51.81742 | -0.42451 | 6560 ft | 274 kts | 262° |
| 2026-05-06 11:28 | 51.81315 | -0.45464 | 7384 ft | 276 kts | 258° |
| 2026-05-06 11:28 | 51.80815 | -0.48484 | 8179 ft | 280 kts | 257° |
| 2026-05-06 11:28 | 51.80293 | -0.51531 | 8963 ft | 283 kts | 257° |
| 2026-05-06 11:29 | 51.79773 | -0.54610 | 9720 ft | 286 kts | 257° |
| 2026-05-06 11:29 | 51.79261 | -0.57749 | 10301 ft | 297 kts | 258° |
| 2026-05-06 11:29 | 51.78734 | -0.61104 | 10511 ft | 319 kts | 258° |
| 2026-05-06 11:29 | 51.78179 | -0.64709 | 10665 ft | 342 kts | 258° |
| 2026-05-06 11:30 | 51.77590 | -0.68556 | 10846 ft | 362 kts | 257° |
| 2026-05-06 11:30 | 51.76979 | -0.72548 | 11378 ft | 369 kts | 257° |
| 2026-05-06 11:30 | 51.76188 | -0.76515 | 11999 ft | 374 kts | 248° |
| 2026-05-06 11:30 | 51.74927 | -0.80214 | 12630 ft | 379 kts | 236° |
| 2026-05-06 11:31 | 51.73232 | -0.83490 | 13259 ft | 383 kts | 226° |
| 2026-05-06 11:31 | 51.71341 | -0.86532 | 13872 ft | 385 kts | 226° |
| 2026-05-06 11:31 | 51.69436 | -0.89591 | 14462 ft | 388 kts | 226° |
| 2026-05-06 11:31 | 51.67520 | -0.92667 | 15052 ft | 390 kts | 226° |
| 2026-05-06 11:32 | 51.65592 | -0.95757 | 15598 ft | 392 kts | 226° |
| 2026-05-06 11:32 | 51.63652 | -0.98871 | 16141 ft | 395 kts | 226° |
| 2026-05-06 11:32 | 51.61703 | -1.01999 | 16665 ft | 397 kts | 226° |
| 2026-05-06 11:32 | 51.59738 | -1.05140 | 17170 ft | 399 kts | 226° |
| 2026-05-06 11:33 | 51.57758 | -1.08292 | 17656 ft | 402 kts | 226° |
| 2026-05-06 11:33 | 51.55709 | -1.11357 | 18145 ft | 405 kts | 220° |
| 2026-05-06 11:33 | 51.54192 | -1.13109 | 18471 ft | 407 kts | 213° |
| 2026-05-06 11:33 | 51.51676 | -1.15237 | 18905 ft | 411 kts | 204° |
| 2026-05-06 11:34 | 51.48939 | -1.16631 | 19346 ft | 415 kts | 193° |
| 2026-05-06 11:34 | 51.46059 | -1.17174 | 19776 ft | 420 kts | 182° |
| 2026-05-06 11:34 | 51.43134 | -1.16787 | 20192 ft | 424 kts | 170° |
| 2026-05-06 11:34 | 51.40297 | -1.15439 | 20606 ft | 429 kts | 158° |
| 2026-05-06 11:35 | 51.37574 | -1.13454 | 21001 ft | 431 kts | 156° |
| 2026-05-06 11:35 | 51.34844 | -1.11435 | 21393 ft | 433 kts | 156° |
| 2026-05-06 11:35 | 51.32100 | -1.09413 | 21770 ft | 435 kts | 156° |
| 2026-05-06 11:35 | 51.29341 | -1.07392 | 22137 ft | 438 kts | 157° |
| 2026-05-06 11:36 | 51.26571 | -1.05372 | 22489 ft | 439 kts | 157° |
| 2026-05-06 11:36 | 51.23783 | -1.03337 | 22840 ft | 441 kts | 156° |
| 2026-05-06 11:36 | 51.20982 | -1.01294 | 23186 ft | 443 kts | 156° |
| 2026-05-06 11:36 | 51.18173 | -0.99250 | 23522 ft | 445 kts | 157° |
| 2026-05-06 11:37 | 51.15351 | -0.97201 | 23866 ft | 447 kts | 156° |
| 2026-05-06 11:37 | 51.12515 | -0.95142 | 24198 ft | 449 kts | 156° |
| 2026-05-06 11:37 | 51.09668 | -0.93074 | 24513 ft | 450 kts | 156° |
| 2026-05-06 11:37 | 51.06811 | -0.91002 | 24812 ft | 452 kts | 156° |
| 2026-05-06 11:38 | 51.03944 | -0.88932 | 25098 ft | 454 kts | 157° |
| 2026-05-06 11:38 | 51.01063 | -0.86855 | 25373 ft | 456 kts | 157° |
| 2026-05-06 11:38 | 50.98170 | -0.84768 | 25651 ft | 457 kts | 156° |
| 2026-05-06 11:38 | 50.95268 | -0.82676 | 25911 ft | 459 kts | 156° |
| 2026-05-06 11:39 | 50.92357 | -0.80581 | 26176 ft | 460 kts | 157° |
| 2026-05-06 11:39 | 50.89434 | -0.78483 | 26420 ft | 462 kts | 157° |
| 2026-05-06 11:39 | 50.86504 | -0.76369 | 26681 ft | 464 kts | 155° |
| 2026-05-06 11:39 | 50.83699 | -0.73826 | 26980 ft | 465 kts | 148° |
| 2026-05-06 11:40 | 50.80989 | -0.71041 | 27338 ft | 464 kts | 148° |
| 2026-05-06 11:40 | 50.78284 | -0.68275 | 27690 ft | 463 kts | 148° |
| 2026-05-06 11:40 | 50.75581 | -0.65525 | 28036 ft | 462 kts | 148° |
| 2026-05-06 11:40 | 50.72880 | -0.62793 | 28378 ft | 461 kts | 148° |
| 2026-05-06 11:41 | 50.70148 | -0.60036 | 28717 ft | 459 kts | 148° |
| 2026-05-06 11:41 | 50.67459 | -0.57318 | 29037 ft | 459 kts | 148° |
| 2026-05-06 11:41 | 50.64777 | -0.54606 | 29370 ft | 458 kts | 148° |
| 2026-05-06 11:41 | 50.62102 | -0.51899 | 29700 ft | 457 kts | 148° |
| 2026-05-06 11:42 | 50.59432 | -0.49200 | 30028 ft | 456 kts | 148° |
| 2026-05-06 11:42 | 50.56762 | -0.46507 | 30332 ft | 455 kts | 148° |
| 2026-05-06 11:42 | 50.54100 | -0.43829 | 30624 ft | 454 kts | 148° |
| 2026-05-06 11:42 | 50.51470 | -0.41191 | 30911 ft | 454 kts | 148° |
| 2026-05-06 11:43 | 50.48771 | -0.38485 | 31197 ft | 454 kts | 148° |
| 2026-05-06 11:43 | 50.46108 | -0.35817 | 31493 ft | 454 kts | 148° |
| 2026-05-06 11:43 | 50.43450 | -0.33160 | 31773 ft | 453 kts | 148° |
| 2026-05-06 11:44 | 50.38164 | -0.27889 | 32313 ft | 453 kts | 148° |
| 2026-05-06 11:44 | 50.35465 | -0.25201 | 32584 ft | 453 kts | 148° |
| 2026-05-06 11:44 | 50.32845 | -0.22593 | 32843 ft | 452 kts | 148° |
| 2026-05-06 11:44 | 50.30189 | -0.19950 | 33087 ft | 452 kts | 148° |
| 2026-05-06 11:45 | 50.27500 | -0.17278 | 33339 ft | 452 kts | 148° |
| 2026-05-06 11:45 | 50.24842 | -0.14641 | 33590 ft | 452 kts | 148° |
| 2026-05-06 11:45 | 50.22186 | -0.12014 | 33839 ft | 452 kts | 148° |
| 2026-05-06 11:45 | 50.19527 | -0.09389 | 34084 ft | 452 kts | 148° |
| 2026-05-06 11:46 | 50.16872 | -0.06769 | 34334 ft | 452 kts | 148° |
| 2026-05-06 11:46 | 50.14218 | -0.04153 | 34583 ft | 451 kts | 148° |
| 2026-05-06 11:46 | 50.11535 | -0.01605 | 34795 ft | 451 kts | 153° |
| 2026-05-06 11:46 | 50.08676 | 0.00386 | 34951 ft | 451 kts | 161° |
| 2026-05-06 11:47 | 50.02606 | 0.02940 | 34971 ft | 452 kts | 166° |
| 2026-05-06 11:47 | 49.96496 | 0.05338 | 34971 ft | 453 kts | 166° |
| 2026-05-06 11:48 | 49.90384 | 0.07727 | 34971 ft | 453 kts | 166° |
| 2026-05-06 11:48 | 49.84268 | 0.10121 | 34971 ft | 453 kts | 166° |
| 2026-05-06 11:49 | 49.78158 | 0.12508 | 34969 ft | 453 kts | 166° |
| 2026-05-06 11:49 | 49.72042 | 0.14886 | 34969 ft | 453 kts | 166° |
| 2026-05-06 11:50 | 49.65923 | 0.17267 | 34970 ft | 454 kts | 166° |
| 2026-05-06 11:50 | 49.59815 | 0.19721 | 34969 ft | 453 kts | 165° |
| 2026-05-06 11:51 | 49.53719 | 0.22212 | 34969 ft | 453 kts | 165° |
| 2026-05-06 11:51 | 49.47623 | 0.24681 | 34970 ft | 453 kts | 165° |
| 2026-05-06 11:52 | 49.41519 | 0.27121 | 34972 ft | 453 kts | 165° |
| 2026-05-06 11:52 | 49.35411 | 0.29548 | 34971 ft | 453 kts | 165° |
| 2026-05-06 11:53 | 49.29307 | 0.31976 | 34974 ft | 453 kts | 165° |
| 2026-05-06 11:53 | 49.23227 | 0.34522 | 34975 ft | 453 kts | 164° |
| 2026-05-06 11:54 | 49.17157 | 0.37125 | 34974 ft | 453 kts | 164° |
| 2026-05-06 11:54 | 49.11080 | 0.39712 | 34970 ft | 453 kts | 164° |
| 2026-05-06 11:55 | 49.04997 | 0.42261 | 34965 ft | 453 kts | 165° |
| 2026-05-06 11:55 | 48.98908 | 0.44790 | 34963 ft | 454 kts | 165° |
| 2026-05-06 11:56 | 48.92820 | 0.47317 | 34962 ft | 454 kts | 164° |
| 2026-05-06 11:56 | 48.86728 | 0.49847 | 34960 ft | 454 kts | 165° |
| 2026-05-06 11:57 | 48.80637 | 0.52377 | 34959 ft | 454 kts | 165° |
| 2026-05-06 11:57 | 48.74537 | 0.54859 | 34957 ft | 454 kts | 165° |
| 2026-05-06 11:58 | 48.68418 | 0.57238 | 34960 ft | 454 kts | 165° |
| 2026-05-06 11:58 | 48.62294 | 0.59597 | 34958 ft | 454 kts | 165° |
| 2026-05-06 11:59 | 48.56175 | 0.61972 | 34956 ft | 454 kts | 165° |
| 2026-05-06 11:59 | 48.50057 | 0.64366 | 34951 ft | 454 kts | 165° |
| 2026-05-06 12:00 | 48.43953 | 0.66849 | 34956 ft | 455 kts | 164° |
| 2026-05-06 12:00 | 48.37850 | 0.69370 | 34955 ft | 455 kts | 164° |
| 2026-05-06 12:01 | 48.31742 | 0.71861 | 34959 ft | 455 kts | 165° |
| 2026-05-06 12:01 | 48.25629 | 0.74321 | 34959 ft | 455 kts | 165° |
| 2026-05-06 12:02 | 48.19503 | 0.76757 | 34963 ft | 455 kts | 165° |
| 2026-05-06 12:02 | 48.13371 | 0.79153 | 34966 ft | 455 kts | 165° |
| 2026-05-06 12:03 | 48.07241 | 0.81540 | 34966 ft | 455 kts | 165° |
| 2026-05-06 12:03 | 48.01110 | 0.83938 | 34963 ft | 455 kts | 165° |
| 2026-05-06 12:04 | 47.94981 | 0.86338 | 34958 ft | 455 kts | 165° |
| 2026-05-06 12:04 | 47.88855 | 0.88732 | 34955 ft | 455 kts | 165° |
| 2026-05-06 12:05 | 47.82725 | 0.91107 | 34954 ft | 455 kts | 165° |
| 2026-05-06 12:05 | 47.76603 | 0.93480 | 34953 ft | 455 kts | 165° |
| 2026-05-06 12:06 | 47.70490 | 0.95846 | 34950 ft | 454 kts | 165° |
| 2026-05-06 12:06 | 47.64370 | 0.98215 | 34947 ft | 454 kts | 165° |
| 2026-05-06 12:07 | 47.58255 | 1.00573 | 34943 ft | 454 kts | 166° |
| 2026-05-06 12:07 | 47.52139 | 1.02910 | 34938 ft | 454 kts | 166° |
| 2026-05-06 12:08 | 47.46027 | 1.05251 | 34942 ft | 454 kts | 166° |
| 2026-05-06 12:08 | 47.39788 | 1.06390 | 34944 ft | 452 kts | 181° |
| 2026-05-06 12:09 | 47.33494 | 1.06230 | 34939 ft | 453 kts | 181° |
| 2026-05-06 12:09 | 47.27200 | 1.06082 | 34932 ft | 452 kts | 181° |
| 2026-05-06 12:10 | 47.20897 | 1.05939 | 34924 ft | 454 kts | 181° |
| 2026-05-06 12:10 | 47.14577 | 1.05789 | 34925 ft | 454 kts | 181° |
| 2026-05-06 12:11 | 47.08255 | 1.05634 | 34926 ft | 455 kts | 181° |
| 2026-05-06 12:11 | 47.01927 | 1.05473 | 34929 ft | 455 kts | 181° |
| 2026-05-06 12:12 | 46.96626 | 1.05292 | 34927 ft | 455 kts | 182° |
| 2026-05-06 12:12 | 46.90303 | 1.05001 | 34928 ft | 454 kts | 182° |
| 2026-05-06 12:13 | 46.83984 | 1.04707 | 34927 ft | 454 kts | 182° |
| 2026-05-06 12:13 | 46.77663 | 1.04442 | 34928 ft | 454 kts | 182° |
| 2026-05-06 12:14 | 46.71345 | 1.04178 | 34928 ft | 454 kts | 182° |
| 2026-05-06 12:14 | 46.65023 | 1.03899 | 34930 ft | 454 kts | 182° |
| 2026-05-06 12:15 | 46.58704 | 1.03622 | 34929 ft | 454 kts | 182° |
| 2026-05-06 12:15 | 46.52385 | 1.03482 | 34929 ft | 454 kts | 176° |
| 2026-05-06 12:16 | 46.46170 | 1.05153 | 34935 ft | 455 kts | 168° |
| 2026-05-06 12:16 | 46.39996 | 1.07236 | 34929 ft | 456 kts | 168° |
| 2026-05-06 12:17 | 46.33816 | 1.09295 | 34931 ft | 456 kts | 168° |
| 2026-05-06 12:17 | 46.27633 | 1.11346 | 34933 ft | 456 kts | 168° |
| 2026-05-06 12:18 | 46.21456 | 1.13400 | 34935 ft | 455 kts | 168° |
| 2026-05-06 12:18 | 46.15281 | 1.15443 | 34935 ft | 455 kts | 168° |
| 2026-05-06 12:19 | 46.09108 | 1.17481 | 34935 ft | 455 kts | 168° |
| 2026-05-06 12:19 | 46.02930 | 1.19524 | 34939 ft | 455 kts | 168° |
| 2026-05-06 12:20 | 45.96756 | 1.21547 | 34940 ft | 455 kts | 169° |
| 2026-05-06 12:20 | 45.90587 | 1.23569 | 34938 ft | 454 kts | 169° |
| 2026-05-06 12:21 | 45.84432 | 1.25583 | 34938 ft | 454 kts | 169° |
| 2026-05-06 12:21 | 45.78280 | 1.27595 | 34935 ft | 453 kts | 169° |
| 2026-05-06 12:22 | 45.72131 | 1.29603 | 34934 ft | 453 kts | 169° |
| 2026-05-06 12:22 | 45.65985 | 1.31604 | 34934 ft | 453 kts | 169° |
| 2026-05-06 12:23 | 45.59844 | 1.33604 | 34938 ft | 452 kts | 169° |
| 2026-05-06 12:23 | 45.53708 | 1.35598 | 34931 ft | 452 kts | 169° |
| 2026-05-06 12:24 | 45.47574 | 1.37580 | 34930 ft | 452 kts | 169° |
| 2026-05-06 12:24 | 45.41442 | 1.39551 | 34925 ft | 452 kts | 169° |
| 2026-05-06 12:25 | 45.35308 | 1.41517 | 34923 ft | 452 kts | 169° |
| 2026-05-06 12:25 | 45.29175 | 1.43484 | 34925 ft | 452 kts | 170° |
| 2026-05-06 12:26 | 45.23038 | 1.45455 | 34931 ft | 452 kts | 170° |
| 2026-05-06 12:26 | 45.16906 | 1.47424 | 34932 ft | 452 kts | 170° |
| 2026-05-06 12:27 | 45.10775 | 1.49383 | 34930 ft | 451 kts | 170° |
| 2026-05-06 12:27 | 45.04651 | 1.51330 | 34932 ft | 451 kts | 170° |
| 2026-05-06 12:28 | 44.98531 | 1.53269 | 34929 ft | 451 kts | 170° |
| 2026-05-06 12:28 | 44.92409 | 1.55207 | 34930 ft | 451 kts | 171° |
| 2026-05-06 12:29 | 44.86296 | 1.57144 | 34934 ft | 450 kts | 171° |
| 2026-05-06 12:29 | 44.80193 | 1.59075 | 34939 ft | 450 kts | 171° |
| 2026-05-06 12:30 | 44.74087 | 1.60997 | 34950 ft | 449 kts | 171° |
| 2026-05-06 12:30 | 44.67986 | 1.62901 | 34953 ft | 449 kts | 171° |
| 2026-05-06 12:31 | 44.61894 | 1.64811 | 34957 ft | 449 kts | 171° |
| 2026-05-06 12:31 | 44.55800 | 1.66722 | 34961 ft | 448 kts | 171° |
| 2026-05-06 12:32 | 44.49714 | 1.68627 | 34964 ft | 448 kts | 172° |
| 2026-05-06 12:32 | 44.43633 | 1.70517 | 34970 ft | 447 kts | 172° |
| 2026-05-06 12:33 | 44.37529 | 1.72412 | 34972 ft | 446 kts | 172° |
| 2026-05-06 12:33 | 44.31507 | 1.74277 | 34973 ft | 446 kts | 172° |
| 2026-05-06 12:34 | 44.25397 | 1.75989 | 34978 ft | 444 kts | 175° |
| 2026-05-06 12:34 | 44.19307 | 1.77280 | 34982 ft | 442 kts | 176° |
| 2026-05-06 12:35 | 44.13215 | 1.78503 | 34985 ft | 442 kts | 176° |
| 2026-05-06 12:35 | 44.07132 | 1.79808 | 34993 ft | 442 kts | 176° |
| 2026-05-06 12:36 | 44.01055 | 1.81159 | 34986 ft | 442 kts | 175° |
| 2026-05-06 12:36 | 43.94977 | 1.82496 | 34989 ft | 441 kts | 177° |
| 2026-05-06 12:37 | 43.88886 | 1.83305 | 34988 ft | 438 kts | 181° |
| 2026-05-06 12:37 | 43.82799 | 1.83733 | 34988 ft | 438 kts | 182° |
| 2026-05-06 12:38 | 43.76719 | 1.84198 | 34984 ft | 438 kts | 181° |
| 2026-05-06 12:38 | 43.70637 | 1.84780 | 34982 ft | 438 kts | 180° |
| 2026-05-06 12:39 | 43.64553 | 1.85404 | 34984 ft | 438 kts | 181° |
| 2026-05-06 12:39 | 43.58469 | 1.86006 | 34985 ft | 438 kts | 181° |
| 2026-05-06 12:40 | 43.52387 | 1.86586 | 34984 ft | 438 kts | 181° |
| 2026-05-06 12:40 | 43.46304 | 1.87172 | 34982 ft | 438 kts | 181° |
| 2026-05-06 12:41 | 43.40222 | 1.87759 | 34983 ft | 438 kts | 181° |
| 2026-05-06 12:41 | 43.34151 | 1.88335 | 34983 ft | 437 kts | 181° |
| 2026-05-06 12:42 | 43.28085 | 1.88904 | 34977 ft | 437 kts | 181° |
| 2026-05-06 12:42 | 43.22023 | 1.89483 | 34975 ft | 437 kts | 181° |
| 2026-05-06 12:43 | 43.15967 | 1.90067 | 34969 ft | 436 kts | 181° |
| 2026-05-06 12:43 | 43.09914 | 1.90646 | 34963 ft | 436 kts | 181° |
| 2026-05-06 12:44 | 43.03866 | 1.91214 | 34962 ft | 435 kts | 181° |
| 2026-05-06 12:44 | 42.97828 | 1.91785 | 34958 ft | 435 kts | 182° |
| 2026-05-06 12:45 | 42.91790 | 1.92363 | 34958 ft | 435 kts | 182° |
| 2026-05-06 12:46 | 42.82750 | 1.93220 | 34959 ft | 433 kts | 182° |
| 2026-05-06 12:46 | 42.76739 | 1.93778 | 34960 ft | 432 kts | 182° |
| 2026-05-06 12:47 | 42.70744 | 1.94341 | 34957 ft | 432 kts | 182° |
| 2026-05-06 12:47 | 42.64776 | 1.95575 | 34960 ft | 440 kts | 172° |
| 2026-05-06 12:48 | 42.58870 | 1.97716 | 34956 ft | 439 kts | 172° |
| 2026-05-06 12:48 | 42.52963 | 1.99842 | 34954 ft | 439 kts | 172° |
| 2026-05-06 12:49 | 42.47056 | 2.01963 | 34958 ft | 439 kts | 172° |
| 2026-05-06 12:49 | 42.42154 | 2.03722 | 34955 ft | 438 kts | 173° |
| 2026-05-06 12:50 | 42.36272 | 2.05826 | 34956 ft | 437 kts | 173° |
| 2026-05-06 12:50 | 42.30395 | 2.07913 | 34956 ft | 436 kts | 173° |
| 2026-05-06 12:51 | 42.24521 | 2.09994 | 34956 ft | 436 kts | 173° |
| 2026-05-06 12:51 | 42.18646 | 2.12076 | 34945 ft | 437 kts | 173° |
| 2026-05-06 12:52 | 42.12766 | 2.14156 | 34946 ft | 437 kts | 173° |
| 2026-05-06 12:52 | 42.06889 | 2.16228 | 34948 ft | 437 kts | 173° |
| 2026-05-06 12:53 | 42.01013 | 2.18302 | 34944 ft | 437 kts | 173° |
| 2026-05-06 12:53 | 41.95142 | 2.20367 | 34947 ft | 436 kts | 173° |
| 2026-05-06 12:54 | 41.89264 | 2.22434 | 34947 ft | 437 kts | 173° |
| 2026-05-06 12:54 | 41.83387 | 2.24498 | 34949 ft | 437 kts | 173° |
| 2026-05-06 12:55 | 41.77500 | 2.26553 | 34952 ft | 437 kts | 173° |
| 2026-05-06 12:55 | 41.71577 | 2.28616 | 34954 ft | 437 kts | 173° |
| 2026-05-06 12:56 | 41.65695 | 2.30667 | 34952 ft | 436 kts | 173° |
| 2026-05-06 12:56 | 41.59822 | 2.32719 | 34956 ft | 436 kts | 173° |
| 2026-05-06 12:57 | 41.53961 | 2.34750 | 34947 ft | 435 kts | 173° |
| 2026-05-06 12:57 | 41.48104 | 2.36782 | 34946 ft | 435 kts | 173° |
| 2026-05-06 12:58 | 41.42245 | 2.38804 | 34951 ft | 435 kts | 173° |
| 2026-05-06 12:58 | 41.36392 | 2.40823 | 34949 ft | 434 kts | 173° |
| 2026-05-06 12:59 | 41.30542 | 2.42852 | 34952 ft | 434 kts | 173° |
| 2026-05-06 12:59 | 41.24703 | 2.44864 | 34954 ft | 433 kts | 173° |
| 2026-05-06 13:00 | 41.18860 | 2.46859 | 34956 ft | 433 kts | 173° |
| 2026-05-06 13:00 | 41.13018 | 2.48868 | 34962 ft | 434 kts | 173° |
| 2026-05-06 13:01 | 41.07173 | 2.50877 | 34962 ft | 434 kts | 173° |
| 2026-05-06 13:01 | 41.01332 | 2.52876 | 34608 ft | 432 kts | 173° |
| 2026-05-06 13:01 | 40.98419 | 2.53871 | 33852 ft | 433 kts | 173° |
| 2026-05-06 13:02 | 40.95500 | 2.54868 | 33091 ft | 433 kts | 173° |
| 2026-05-06 13:02 | 40.92580 | 2.55860 | 32310 ft | 434 kts | 173° |
| 2026-05-06 13:02 | 40.89654 | 2.56848 | 31497 ft | 435 kts | 173° |
| 2026-05-06 13:02 | 40.86720 | 2.57841 | 30664 ft | 435 kts | 173° |
| 2026-05-06 13:03 | 40.83788 | 2.58834 | 29800 ft | 436 kts | 173° |
| 2026-05-06 13:03 | 40.80841 | 2.59834 | 28893 ft | 438 kts | 173° |
| 2026-05-06 13:03 | 40.77881 | 2.60837 | 27891 ft | 440 kts | 172° |
| 2026-05-06 13:03 | 40.74900 | 2.61843 | 26809 ft | 444 kts | 172° |
| 2026-05-06 13:04 | 40.71894 | 2.62861 | 25673 ft | 448 kts | 172° |
| 2026-05-06 13:04 | 40.68858 | 2.63891 | 24596 ft | 452 kts | 171° |
| 2026-05-06 13:04 | 40.65795 | 2.64928 | 24099 ft | 457 kts | 171° |
| 2026-05-06 13:04 | 40.62708 | 2.65973 | 23621 ft | 458 kts | 171° |
| 2026-05-06 13:05 | 40.59625 | 2.67017 | 23146 ft | 456 kts | 171° |
| 2026-05-06 13:05 | 40.56562 | 2.68057 | 22677 ft | 453 kts | 171° |
| 2026-05-06 13:05 | 40.53515 | 2.69091 | 22190 ft | 451 kts | 171° |
| 2026-05-06 13:05 | 40.50501 | 2.70219 | 21717 ft | 452 kts | 165° |
| 2026-05-06 13:06 | 40.47639 | 2.71954 | 21243 ft | 455 kts | 156° |
| 2026-05-06 13:06 | 40.44874 | 2.73960 | 20765 ft | 452 kts | 156° |
| 2026-05-06 13:06 | 40.42140 | 2.75952 | 20290 ft | 446 kts | 156° |
| 2026-05-06 13:06 | 40.39464 | 2.77904 | 19819 ft | 435 kts | 156° |
| 2026-05-06 13:07 | 40.36844 | 2.79810 | 19336 ft | 426 kts | 156° |
| 2026-05-06 13:07 | 40.34279 | 2.81671 | 18864 ft | 417 kts | 156° |
| 2026-05-06 13:07 | 40.31769 | 2.83485 | 18378 ft | 408 kts | 156° |
| 2026-05-06 13:07 | 40.29312 | 2.85264 | 17905 ft | 400 kts | 156° |
| 2026-05-06 13:08 | 40.26900 | 2.87004 | 17427 ft | 388 kts | 156° |
| 2026-05-06 13:08 | 40.24592 | 2.88667 | 16940 ft | 369 kts | 156° |
| 2026-05-06 13:08 | 40.22392 | 2.90254 | 16474 ft | 353 kts | 156° |
| 2026-05-06 13:08 | 40.20281 | 2.91775 | 16000 ft | 340 kts | 156° |
| 2026-05-06 13:09 | 40.18244 | 2.93242 | 15525 ft | 329 kts | 156° |
| 2026-05-06 13:09 | 40.16269 | 2.94657 | 15058 ft | 319 kts | 156° |
| 2026-05-06 13:09 | 40.14346 | 2.96035 | 14577 ft | 312 kts | 156° |
| 2026-05-06 13:09 | 40.12454 | 2.97387 | 14100 ft | 308 kts | 156° |
| 2026-05-06 13:10 | 40.10577 | 2.98726 | 13621 ft | 306 kts | 156° |
| 2026-05-06 13:10 | 40.08707 | 3.00060 | 13151 ft | 308 kts | 156° |
| 2026-05-06 13:10 | 40.06817 | 3.01409 | 12669 ft | 311 kts | 155° |
| 2026-05-06 13:10 | 40.04913 | 3.02769 | 12199 ft | 313 kts | 155° |
| 2026-05-06 13:11 | 40.02994 | 3.04141 | 11712 ft | 316 kts | 155° |
| 2026-05-06 13:11 | 40.01062 | 3.05521 | 11247 ft | 317 kts | 154° |
| 2026-05-06 13:11 | 39.99123 | 3.06907 | 10775 ft | 318 kts | 154° |
| 2026-05-06 13:11 | 39.97180 | 3.08294 | 10288 ft | 319 kts | 154° |
| 2026-05-06 13:12 | 39.95229 | 3.09687 | 9821 ft | 320 kts | 153° |
| 2026-05-06 13:12 | 39.93235 | 3.10938 | 9342 ft | 317 kts | 166° |
| 2026-05-06 13:12 | 39.91068 | 3.11192 | 8862 ft | 313 kts | 189° |
| 2026-05-06 13:12 | 39.89043 | 3.10265 | 8440 ft | 308 kts | 214° |
| 2026-05-06 13:13 | 39.87551 | 3.08358 | 8165 ft | 298 kts | 237° |
| 2026-05-06 13:13 | 39.86591 | 3.06004 | 7902 ft | 291 kts | 244° |
| 2026-05-06 13:13 | 39.85708 | 3.03693 | 7763 ft | 279 kts | 244° |
| 2026-05-06 13:13 | 39.84859 | 3.01472 | 7637 ft | 268 kts | 244° |
| 2026-05-06 13:14 | 39.84045 | 2.99343 | 7498 ft | 257 kts | 244° |
| 2026-05-06 13:14 | 39.83263 | 2.97302 | 7380 ft | 247 kts | 244° |
| 2026-05-06 13:14 | 39.82505 | 2.95330 | 7127 ft | 242 kts | 244° |
| 2026-05-06 13:14 | 39.81757 | 2.93383 | 6967 ft | 241 kts | 244° |
| 2026-05-06 13:15 | 39.81010 | 2.91435 | 6949 ft | 241 kts | 244° |
| 2026-05-06 13:15 | 39.80262 | 2.89485 | 6949 ft | 241 kts | 244° |
| 2026-05-06 13:15 | 39.79502 | 2.87507 | 6952 ft | 242 kts | 244° |
| 2026-05-06 13:15 | 39.78750 | 2.85554 | 6955 ft | 242 kts | 243° |
| 2026-05-06 13:16 | 39.77998 | 2.83598 | 6952 ft | 242 kts | 244° |
| 2026-05-06 13:16 | 39.77202 | 2.81679 | 6952 ft | 242 kts | 236° |
| 2026-05-06 13:16 | 39.76233 | 2.79842 | 6953 ft | 250 kts | 236° |
| 2026-05-06 13:16 | 39.75243 | 2.77971 | 6950 ft | 252 kts | 236° |
| 2026-05-06 13:17 | 39.74249 | 2.76090 | 6952 ft | 253 kts | 236° |
| 2026-05-06 13:17 | 39.73255 | 2.74206 | 6950 ft | 253 kts | 236° |
| 2026-05-06 13:17 | 39.72262 | 2.72326 | 6955 ft | 252 kts | 236° |
| 2026-05-06 13:17 | 39.71268 | 2.70445 | 6952 ft | 253 kts | 236° |
| 2026-05-06 13:18 | 39.70274 | 2.68562 | 6868 ft | 252 kts | 236° |
| 2026-05-06 13:18 | 39.69284 | 2.66684 | 6764 ft | 252 kts | 236° |
| 2026-05-06 13:18 | 39.68297 | 2.64808 | 6668 ft | 252 kts | 236° |
| 2026-05-06 13:18 | 39.67311 | 2.62935 | 6564 ft | 251 kts | 236° |
| 2026-05-06 13:19 | 39.66324 | 2.61066 | 6450 ft | 251 kts | 236° |
| 2026-05-06 13:19 | 39.65338 | 2.59200 | 6363 ft | 250 kts | 236° |
| 2026-05-06 13:19 | 39.64353 | 2.57340 | 6261 ft | 250 kts | 236° |
| 2026-05-06 13:19 | 39.63369 | 2.55478 | 6165 ft | 250 kts | 236° |
| 2026-05-06 13:20 | 39.62388 | 2.53621 | 6061 ft | 249 kts | 236° |
| 2026-05-06 13:20 | 39.61407 | 2.51769 | 5965 ft | 249 kts | 236° |
| 2026-05-06 13:20 | 39.60429 | 2.49922 | 5867 ft | 248 kts | 236° |
| 2026-05-06 13:20 | 39.59446 | 2.48069 | 5766 ft | 250 kts | 236° |
| 2026-05-06 13:21 | 39.58462 | 2.46213 | 5656 ft | 249 kts | 236° |
| 2026-05-06 13:21 | 39.57489 | 2.44370 | 5546 ft | 247 kts | 236° |
| 2026-05-06 13:21 | 39.56481 | 2.42572 | 5480 ft | 247 kts | 226° |
| 2026-05-06 13:21 | 39.55034 | 2.41413 | 5483 ft | 248 kts | 195° |
| 2026-05-06 13:22 | 39.53321 | 2.41400 | 5488 ft | 250 kts | 163° |
| 2026-05-06 13:22 | 39.51804 | 2.42486 | 5309 ft | 250 kts | 144° |
| 2026-05-06 13:22 | 39.50401 | 2.43814 | 4900 ft | 248 kts | 144° |
| 2026-05-06 13:22 | 39.49010 | 2.45128 | 4418 ft | 246 kts | 144° |
| 2026-05-06 13:23 | 39.47635 | 2.46429 | 3935 ft | 245 kts | 143° |
| 2026-05-06 13:23 | 39.46281 | 2.47769 | 3479 ft | 243 kts | 134° |
| 2026-05-06 13:23 | 39.45480 | 2.49628 | 3031 ft | 237 kts | 99° |
| 2026-05-06 13:23 | 39.45609 | 2.51710 | 2528 ft | 234 kts | 66° |
| 2026-05-06 13:24 | 39.46501 | 2.53417 | 2273 ft | 222 kts | 53° |
| 2026-05-06 13:24 | 39.47249 | 2.55080 | 2278 ft | 206 kts | 63° |
| 2026-05-06 13:24 | 39.47911 | 2.56682 | 2316 ft | 198 kts | 60° |
| 2026-05-06 13:24 | 39.48614 | 2.58209 | 2241 ft | 197 kts | 60° |
| 2026-05-06 13:25 | 39.49324 | 2.59716 | 2015 ft | 198 kts | 58° |
| 2026-05-06 13:25 | 39.50036 | 2.61210 | 1783 ft | 194 kts | 60° |
| 2026-05-06 13:25 | 39.50768 | 2.62761 | 1524 ft | 206 kts | 59° |
| 2026-05-06 13:25 | 39.51533 | 2.64371 | 1226 ft | 209 kts | 59° |
| 2026-05-06 13:26 | 39.52276 | 2.65929 | 960 ft | 199 kts | 59° |
| 2026-05-06 13:26 | 39.52983 | 2.67417 | 698 ft | 188 kts | 59° |
| 2026-05-06 13:26 | 39.53425 | 2.68348 | 543 ft | 178 kts | 59° |
| 2026-05-06 13:26 | 39.54047 | 2.69660 | 335 ft | 162 kts | 60° |
| 2026-05-06 13:27 | 39.54602 | 2.70840 | 103 ft | 147 kts | 60° |
| 2026-05-06 13:27 | 39.55086 | 2.71935 | 68 ft | 128 kts | 60° |
| 2026-05-06 13:27 | 39.55594 | 2.72989 | 576 ft | 151 kts | 57° |
| 2026-05-06 13:27 | 39.56218 | 2.74149 | 1361 ft | 164 kts | 56° |
| 2026-05-06 13:28 | 39.56920 | 2.75414 | 1785 ft | 182 kts | 56° |
| 2026-05-06 13:28 | 39.57559 | 2.76898 | 2069 ft | 195 kts | 78° |
| 2026-05-06 13:28 | 39.57451 | 2.78646 | 2336 ft | 197 kts | 112° |
| 2026-05-06 13:28 | 39.56554 | 2.79935 | 2314 ft | 198 kts | 150° |
| 2026-05-06 13:29 | 39.55212 | 2.80218 | 2317 ft | 202 kts | 189° |
| 2026-05-06 13:29 | 39.53986 | 2.79362 | 2308 ft | 205 kts | 227° |
| 2026-05-06 13:29 | 39.53209 | 2.77833 | 2311 ft | 202 kts | 242° |
| 2026-05-06 13:29 | 39.52525 | 2.76239 | 2307 ft | 203 kts | 236° |
| 2026-05-06 13:30 | 39.51715 | 2.74752 | 2308 ft | 202 kts | 233° |
| 2026-05-06 13:30 | 39.50871 | 2.73292 | 2299 ft | 203 kts | 233° |
| 2026-05-06 13:30 | 39.50028 | 2.71843 | 2307 ft | 204 kts | 232° |
| 2026-05-06 13:30 | 39.49172 | 2.70386 | 2300 ft | 205 kts | 232° |
| 2026-05-06 13:31 | 39.48306 | 2.68924 | 2299 ft | 204 kts | 232° |
| 2026-05-06 13:31 | 39.47462 | 2.67454 | 2305 ft | 204 kts | 236° |
| 2026-05-06 13:31 | 39.46757 | 2.65859 | 2317 ft | 204 kts | 242° |
| 2026-05-06 13:31 | 39.46097 | 2.64237 | 2298 ft | 204 kts | 242° |
| 2026-05-06 13:32 | 39.45437 | 2.62620 | 2314 ft | 201 kts | 242° |
| 2026-05-06 13:32 | 39.44797 | 2.61004 | 2306 ft | 201 kts | 243° |
| 2026-05-06 13:32 | 39.44150 | 2.59393 | 2307 ft | 201 kts | 243° |
| 2026-05-06 13:32 | 39.43495 | 2.57771 | 2292 ft | 204 kts | 242° |
| 2026-05-06 13:33 | 39.42841 | 2.56159 | 2294 ft | 197 kts | 243° |
| 2026-05-06 13:33 | 39.42575 | 2.54470 | 2286 ft | 191 kts | 279° |
| 2026-05-06 13:33 | 39.43158 | 2.52962 | 2296 ft | 188 kts | 317° |
| 2026-05-06 13:33 | 39.44320 | 2.52253 | 2305 ft | 187 kts | 356° |
| 2026-05-06 13:34 | 39.45553 | 2.52680 | 2296 ft | 186 kts | 37° |
| 2026-05-06 13:34 | 39.46418 | 2.53925 | 2311 ft | 187 kts | 53° |
| 2026-05-06 13:34 | 39.47166 | 2.55286 | 2313 ft | 186 kts | 59° |
| 2026-05-06 13:34 | 39.47867 | 2.56692 | 2312 ft | 184 kts | 60° |
| 2026-05-06 13:35 | 39.48554 | 2.58107 | 2251 ft | 183 kts | 57° |
| 2026-05-06 13:35 | 39.49189 | 2.59425 | 2062 ft | 163 kts | 57° |
| 2026-05-06 13:35 | 39.49757 | 2.60616 | 1876 ft | 153 kts | 59° |
| 2026-05-06 13:35 | 39.50321 | 2.61803 | 1678 ft | 155 kts | 59° |
| 2026-05-06 13:36 | 39.50884 | 2.62989 | 1459 ft | 153 kts | 59° |
| 2026-05-06 13:36 | 39.51426 | 2.64127 | 1274 ft | 145 kts | 59° |
| 2026-05-06 13:36 | 39.51943 | 2.65221 | 1082 ft | 140 kts | 60° |
| 2026-05-06 13:36 | 39.52449 | 2.66289 | 895 ft | 138 kts | 60° |
| 2026-05-06 13:37 | 39.52949 | 2.67342 | 736 ft | 137 kts | 60° |
| 2026-05-06 13:37 | 39.53447 | 2.68393 | 564 ft | 137 kts | 59° |
| 2026-05-06 13:37 | 39.53943 | 2.69437 | 382 ft | 137 kts | 60° |
| 2026-05-06 13:37 | 39.54451 | 2.70506 | 205 ft | 138 kts | 60° |
| 2026-05-06 13:38 | 39.54934 | 2.71558 | 48 ft | 129 kts | 55° |
| 2026-05-06 13:38 | 39.55321 | 2.72371 | 37 ft | 68 kts | 58° |
| 2026-05-06 13:38 | 39.55453 | 2.72646 | 38 ft | 25 kts | 58° |
| 2026-05-06 13:38 | 39.55495 | 2.72853 | 38 ft | 23 kts | 85° |
| 2026-05-06 13:39 | 39.55499 | 2.73055 | 38 ft | 22 kts | 89° |
| 2026-05-06 13:39 | 39.55499 | 2.73111 | 38 ft | 0 kts | 90° |
| 2026-05-06 13:40 | 39.55496 | 2.73114 | 38 ft | 1 kts | 124° |
| 2026-05-06 13:40 | 39.55475 | 2.73105 | 38 ft | 9 kts | 207° |
| 2026-05-06 13:40 | 39.55428 | 2.73020 | 38 ft | 10 kts | 238° |
| 2026-05-06 13:40 | 39.55382 | 2.72982 | 38 ft | 6 kts | 185° |
| 2026-05-06 13:41 | 39.55341 | 2.72997 | 38 ft | 8 kts | 152° |
| 2026-05-06 13:41 | 39.55302 | 2.73028 | 38 ft | 5 kts | 147° |
| 2026-05-06 13:41 | 39.55277 | 2.73075 | 37 ft | 7 kts | 95° |
| 2026-05-06 13:41 | 39.55290 | 2.73122 | 36 ft | 6 kts | 61° |
| 2026-05-06 13:42 | 39.55282 | 2.73171 | 37 ft | 7 kts | 167° |
| 2026-05-06 13:42 | 39.55252 | 2.73162 | 38 ft | 2 kts | 193° |
| 2026-05-06 13:42 | 39.55244 | 2.73159 | 38 ft | 1 kts | 194° |
| 2026-05-06 13:42 | 39.55236 | 2.73157 | 36 ft | 3 kts | 196° |
| 2026-05-06 13:43 | 39.55222 | 2.73151 | 38 ft | 1 kts | 196° |
| 2026-05-06 13:43 | 39.55220 | 2.73151 | 38 ft | 0 kts | 196° |
| 2026-05-06 13:43 | 39.55219 | 2.73150 | 38 ft | 0 kts | 196° |